sensor_id;sensor_type;location;lat;lon;timestamp;pressure;altitude;pressure_sealevel;temperature;humidity
39729;BME280;25402;42.004;23.088;2023-09-30T00:02:00;97797.56;;;11.94;40.97
39729;BME280;25402;42.004;23.088;2023-09-30T00:04:27;97796.91;;;11.92;41.27
39729;BME280;25402;42.004;23.088;2023-09-30T00:06:55;97784.44;;;11.82;40.89
39729;BME280;25402;42.004;23.088;2023-09-30T00:09:24;97791.84;;;11.89;41.07
39729;BME280;25402;42.004;23.088;2023-09-30T00:11:51;97787.97;;;11.83;41.05
39729;BME280;25402;42.004;23.088;2023-09-30T00:14:20;97794.25;;;11.83;41.32
39729;BME280;25402;42.004;23.088;2023-09-30T00:16:47;97798.13;;;11.89;41.09
39729;BME280;25402;42.004;23.088;2023-09-30T00:19:16;97804.75;;;11.87;41.06
39729;BME280;25402;42.004;23.088;2023-09-30T00:21:43;97808.47;;;11.86;41.08
39729;BME280;25402;42.004;23.088;2023-09-30T00:24:10;97784.25;;;11.69;41.36
39729;BME280;25402;42.004;23.088;2023-09-30T00:26:37;97789.50;;;11.71;41.15
39729;BME280;25402;42.004;23.088;2023-09-30T00:29:04;97794.19;;;11.77;41.15
39729;BME280;25402;42.004;23.088;2023-09-30T00:31:31;97791.00;;;11.73;41.42
39729;BME280;25402;42.004;23.088;2023-09-30T00:33:58;97768.66;;;11.57;41.29
39729;BME280;25402;42.004;23.088;2023-09-30T00:36:27;97774.75;;;11.59;41.35
39729;BME280;25402;42.004;23.088;2023-09-30T00:38:54;97791.34;;;11.70;41.36
39729;BME280;25402;42.004;23.088;2023-09-30T00:41:21;97796.59;;;11.72;41.40
39729;BME280;25402;42.004;23.088;2023-09-30T00:43:48;97788.47;;;11.72;41.63
39729;BME280;25402;42.004;23.088;2023-09-30T00:46:20;97790.34;;;11.71;41.43
39729;BME280;25402;42.004;23.088;2023-09-30T00:48:51;97787.16;;;11.68;41.48
39729;BME280;25402;42.004;23.088;2023-09-30T00:51:19;97798.34;;;11.65;41.30
39729;BME280;25402;42.004;23.088;2023-09-30T00:53:48;97786.91;;;11.63;41.49
39729;BME280;25402;42.004;23.088;2023-09-30T00:56:16;97780.41;;;11.49;41.59
39729;BME280;25402;42.004;23.088;2023-09-30T00:58:46;97785.75;;;11.57;41.74
39729;BME280;25402;42.004;23.088;2023-09-30T01:01:17;97794.25;;;11.54;41.57
39729;BME280;25402;42.004;23.088;2023-09-30T01:03:45;97780.81;;;11.46;41.60
39729;BME280;25402;42.004;23.088;2023-09-30T01:06:13;97776.41;;;11.30;41.82
39729;BME280;25402;42.004;23.088;2023-09-30T01:08:40;97786.97;;;11.40;41.93
39729;BME280;25402;42.004;23.088;2023-09-30T01:11:09;97790.69;;;11.39;42.05
39729;BME280;25402;42.004;23.088;2023-09-30T01:13:36;97775.94;;;11.27;42.08
39729;BME280;25402;42.004;23.088;2023-09-30T01:16:04;97789.78;;;11.32;42.22
39729;BME280;25402;42.004;23.088;2023-09-30T01:18:31;97786.41;;;11.30;41.99
39729;BME280;25402;42.004;23.088;2023-09-30T01:20:59;97781.34;;;11.27;42.17
39729;BME280;25402;42.004;23.088;2023-09-30T01:23:30;97783.41;;;11.25;42.08
39729;BME280;25402;42.004;23.088;2023-09-30T01:25:57;97771.34;;;11.13;42.30
39729;BME280;25402;42.004;23.088;2023-09-30T01:28:28;97754.00;;;10.99;42.42
39729;BME280;25402;42.004;23.088;2023-09-30T01:30:56;97785.91;;;11.11;42.23
39729;BME280;25402;42.004;23.088;2023-09-30T01:33:23;97790.00;;;11.07;42.74
39729;BME280;25402;42.004;23.088;2023-09-30T01:35:50;97788.66;;;11.03;42.64
39729;BME280;25402;42.004;23.088;2023-09-30T01:38:17;97784.66;;;10.99;42.54
39729;BME280;25402;42.004;23.088;2023-09-30T01:40:45;97795.81;;;10.96;42.65
39729;BME280;25402;42.004;23.088;2023-09-30T01:43:15;97800.09;;;10.91;42.76
39729;BME280;25402;42.004;23.088;2023-09-30T01:45:43;97788.00;;;10.78;43.26
39729;BME280;25402;42.004;23.088;2023-09-30T01:48:11;97803.91;;;10.82;43.29
39729;BME280;25402;42.004;23.088;2023-09-30T01:50:38;97801.38;;;10.80;43.28
39729;BME280;25402;42.004;23.088;2023-09-30T01:53:05;97797.16;;;10.77;43.38
39729;BME280;25402;42.004;23.088;2023-09-30T01:55:32;97801.72;;;10.77;43.28
39729;BME280;25402;42.004;23.088;2023-09-30T01:58:01;97803.75;;;10.75;43.01
39729;BME280;25402;42.004;23.088;2023-09-30T02:00:28;97798.88;;;10.70;43.28
39729;BME280;25402;42.004;23.088;2023-09-30T02:02:56;97790.53;;;10.57;43.17
39729;BME280;25402;42.004;23.088;2023-09-30T02:05:23;97791.72;;;10.55;43.15
39729;BME280;25402;42.004;23.088;2023-09-30T02:07:50;97802.19;;;10.58;43.35
39729;BME280;25402;42.004;23.088;2023-09-30T02:10:17;97800.91;;;10.54;43.36
39729;BME280;25402;42.004;23.088;2023-09-30T02:12:44;97796.00;;;10.49;43.72
39729;BME280;25402;42.004;23.088;2023-09-30T02:15:14;97806.16;;;10.47;43.49
39729;BME280;25402;42.004;23.088;2023-09-30T02:17:41;97784.63;;;10.31;43.63
39729;BME280;25402;42.004;23.088;2023-09-30T02:20:11;97790.41;;;10.28;43.59
39729;BME280;25402;42.004;23.088;2023-09-30T02:22:42;97803.69;;;10.37;43.68
39729;BME280;25402;42.004;23.088;2023-09-30T02:25:10;97813.00;;;10.35;43.87
39729;BME280;25402;42.004;23.088;2023-09-30T02:27:39;97795.69;;;10.21;44.05
39729;BME280;25402;42.004;23.088;2023-09-30T02:30:08;97774.63;;;10.08;44.08
39729;BME280;25402;42.004;23.088;2023-09-30T02:32:38;97808.97;;;10.31;44.34
39729;BME280;25402;42.004;23.088;2023-09-30T02:35:06;97791.66;;;10.17;44.17
39729;BME280;25402;42.004;23.088;2023-09-30T02:37:33;97781.34;;;10.13;44.22
39729;BME280;25402;42.004;23.088;2023-09-30T02:40:02;97792.88;;;10.06;44.42
39729;BME280;25402;42.004;23.088;2023-09-30T02:42:35;97809.22;;;10.13;44.35
39729;BME280;25402;42.004;23.088;2023-09-30T02:45:02;97807.53;;;10.12;44.49
39729;BME280;25402;42.004;23.088;2023-09-30T02:47:29;97810.25;;;10.12;44.93
39729;BME280;25402;42.004;23.088;2023-09-30T02:49:58;97772.50;;;9.88;44.63
39729;BME280;25402;42.004;23.088;2023-09-30T02:52:25;97810.94;;;10.06;44.90
39729;BME280;25402;42.004;23.088;2023-09-30T02:54:52;97791.56;;;9.94;44.79
39729;BME280;25402;42.004;23.088;2023-09-30T02:57:19;97807.56;;;10.04;44.55
39729;BME280;25402;42.004;23.088;2023-09-30T02:59:47;97809.78;;;10.00;44.76
39729;BME280;25402;42.004;23.088;2023-09-30T03:02:14;97815.00;;;10.02;44.96
39729;BME280;25402;42.004;23.088;2023-09-30T03:04:44;97803.53;;;10.00;44.99
39729;BME280;25402;42.004;23.088;2023-09-30T03:07:13;97809.28;;;9.97;45.10
39729;BME280;25402;42.004;23.088;2023-09-30T03:09:40;97819.25;;;9.96;44.71
39729;BME280;25402;42.004;23.088;2023-09-30T03:12:07;97742.44;;;9.52;44.85
39729;BME280;25402;42.004;23.088;2023-09-30T03:14:35;97817.56;;;9.95;45.06
39729;BME280;25402;42.004;23.088;2023-09-30T03:17:02;97815.69;;;9.96;45.05
39729;BME280;25402;42.004;23.088;2023-09-30T03:19:29;97786.72;;;9.82;45.01
39729;BME280;25402;42.004;23.088;2023-09-30T03:21:56;97819.41;;;9.95;44.73
39729;BME280;25402;42.004;23.088;2023-09-30T03:24:24;97813.34;;;9.93;45.03
39729;BME280;25402;42.004;23.088;2023-09-30T03:26:52;97806.97;;;9.86;44.91
39729;BME280;25402;42.004;23.088;2023-09-30T03:29:19;97812.88;;;9.89;45.05
39729;BME280;25402;42.004;23.088;2023-09-30T03:31:46;97805.63;;;9.82;44.75
39729;BME280;25402;42.004;23.088;2023-09-30T03:34:13;97810.69;;;9.85;45.16
39729;BME280;25402;42.004;23.088;2023-09-30T03:36:42;97814.06;;;9.87;45.00
39729;BME280;25402;42.004;23.088;2023-09-30T03:39:09;97818.63;;;9.86;45.11
39729;BME280;25402;42.004;23.088;2023-09-30T03:41:41;97810.69;;;9.85;45.13
39729;BME280;25402;42.004;23.088;2023-09-30T03:44:09;97813.56;;;9.83;45.14
39729;BME280;25402;42.004;23.088;2023-09-30T03:46:36;97813.91;;;9.80;44.99
39729;BME280;25402;42.004;23.088;2023-09-30T03:49:03;97807.03;;;9.69;45.22
39729;BME280;25402;42.004;23.088;2023-09-30T03:51:30;97811.75;;;9.76;45.19
39729;BME280;25402;42.004;23.088;2023-09-30T03:53:57;97806.53;;;9.74;45.23
39729;BME280;25402;42.004;23.088;2023-09-30T03:56:24;97810.91;;;9.75;45.15
39729;BME280;25402;42.004;23.088;2023-09-30T03:58:52;97811.25;;;9.72;45.08
39729;BME280;25402;42.004;23.088;2023-09-30T04:01:19;97805.00;;;9.71;45.04
39729;BME280;25402;42.004;23.088;2023-09-30T04:03:46;97814.28;;;9.69;45.18
39729;BME280;25402;42.004;23.088;2023-09-30T04:06:13;97817.00;;;9.69;45.05
39729;BME280;25402;42.004;23.088;2023-09-30T04:08:40;97815.66;;;9.65;45.22
39729;BME280;25402;42.004;23.088;2023-09-30T04:11:09;97803.38;;;9.54;45.31
39729;BME280;25402;42.004;23.088;2023-09-30T04:13:42;97810.75;;;9.60;45.31
39729;BME280;25402;42.004;23.088;2023-09-30T04:16:10;97811.81;;;9.59;45.25
39729;BME280;25402;42.004;23.088;2023-09-30T04:18:37;97811.81;;;9.59;45.20
39729;BME280;25402;42.004;23.088;2023-09-30T04:21:06;97810.75;;;9.60;45.44
39729;BME280;25402;42.004;23.088;2023-09-30T04:23:33;97814.31;;;9.61;45.26
39729;BME280;25402;42.004;23.088;2023-09-30T04:26:02;97806.75;;;9.56;45.37
39729;BME280;25402;42.004;23.088;2023-09-30T04:28:30;97820.25;;;9.56;45.38
39729;BME280;25402;42.004;23.088;2023-09-30T04:30:59;97821.94;;;9.57;45.31
39729;BME280;25402;42.004;23.088;2023-09-30T04:33:29;97824.63;;;9.57;45.27
39729;BME280;25402;42.004;23.088;2023-09-30T04:35:56;97828.00;;;9.59;45.25
39729;BME280;25402;42.004;23.088;2023-09-30T04:38:23;97809.63;;;9.47;45.46
39729;BME280;25402;42.004;23.088;2023-09-30T04:40:51;97833.41;;;9.59;45.36
39729;BME280;25402;42.004;23.088;2023-09-30T04:43:19;97834.06;;;9.61;45.39
39729;BME280;25402;42.004;23.088;2023-09-30T04:45:47;97835.56;;;9.64;45.70
39729;BME280;25402;42.004;23.088;2023-09-30T04:48:18;97837.09;;;9.66;45.41
39729;BME280;25402;42.004;23.088;2023-09-30T04:50:46;97840.78;;;9.73;45.19
39729;BME280;25402;42.004;23.088;2023-09-30T04:53:13;97830.66;;;9.67;45.45
39729;BME280;25402;42.004;23.088;2023-09-30T04:55:41;97811.03;;;9.82;45.54
39729;BME280;25402;42.004;23.088;2023-09-30T04:58:08;97849.78;;;10.44;45.03
39729;BME280;25402;42.004;23.088;2023-09-30T05:00:35;97857.84;;;10.83;44.26
39729;BME280;25402;42.004;23.088;2023-09-30T05:03:02;97849.19;;;11.10;44.25
39729;BME280;25402;42.004;23.088;2023-09-30T05:05:30;97853.47;;;11.42;43.59
39729;BME280;25402;42.004;23.088;2023-09-30T05:07:59;97854.25;;;11.80;42.88
39729;BME280;25402;42.004;23.088;2023-09-30T05:10:26;97835.78;;;11.99;42.34
39729;BME280;25402;42.004;23.088;2023-09-30T05:12:53;97852.25;;;12.48;41.35
39729;BME280;25402;42.004;23.088;2023-09-30T05:15:21;97852.66;;;12.81;40.56
39729;BME280;25402;42.004;23.088;2023-09-30T05:17:48;97823.56;;;12.96;39.82
39729;BME280;25402;42.004;23.088;2023-09-30T05:20:16;97818.38;;;13.23;39.44
39729;BME280;25402;42.004;23.088;2023-09-30T05:22:45;97849.78;;;13.81;38.67
39729;BME280;25402;42.004;23.088;2023-09-30T05:25:14;97862.69;;;14.00;38.15
39729;BME280;25402;42.004;23.088;2023-09-30T05:27:42;97842.03;;;14.12;37.59
39729;BME280;25402;42.004;23.088;2023-09-30T05:30:09;97855.63;;;14.53;37.25
39729;BME280;25402;42.004;23.088;2023-09-30T05:32:45;97852.97;;;14.80;36.33
39729;BME280;25402;42.004;23.088;2023-09-30T05:35:12;97850.94;;;14.95;36.22
39729;BME280;25402;42.004;23.088;2023-09-30T05:37:42;97864.41;;;15.29;35.54
39729;BME280;25402;42.004;23.088;2023-09-30T05:40:12;97873.88;;;15.53;35.55
39729;BME280;25402;42.004;23.088;2023-09-30T05:42:47;97870.31;;;15.79;34.98
39729;BME280;25402;42.004;23.088;2023-09-30T05:45:15;97866.72;;;16.05;34.50
39729;BME280;25402;42.004;23.088;2023-09-30T05:47:42;97872.94;;;16.25;33.92
39729;BME280;25402;42.004;23.088;2023-09-30T05:50:10;97862.00;;;16.32;33.75
39729;BME280;25402;42.004;23.088;2023-09-30T05:52:40;97853.16;;;16.50;33.20
39729;BME280;25402;42.004;23.088;2023-09-30T05:55:08;97868.19;;;16.65;33.28
39729;BME280;25402;42.004;23.088;2023-09-30T05:57:36;97874.38;;;16.86;32.56
39729;BME280;25402;42.004;23.088;2023-09-30T06:00:05;97857.81;;;16.81;32.34
39729;BME280;25402;42.004;23.088;2023-09-30T06:02:46;97850.41;;;16.88;32.61
39729;BME280;25402;42.004;23.088;2023-09-30T06:05:15;97868.41;;;17.02;32.19
39729;BME280;25402;42.004;23.088;2023-09-30T06:07:44;97853.53;;;16.98;32.35
39729;BME280;25402;42.004;23.088;2023-09-30T06:10:12;97871.53;;;17.12;32.00
39729;BME280;25402;42.004;23.088;2023-09-30T06:12:45;97853.06;;;17.01;31.97
39729;BME280;25402;42.004;23.088;2023-09-30T06:15:13;97878.47;;;17.08;32.33
39729;BME280;25402;42.004;23.088;2023-09-30T06:17:39;97878.22;;;17.16;31.91
39729;BME280;25402;42.004;23.088;2023-09-30T06:20:07;97882.81;;;17.22;32.15
39729;BME280;25402;42.004;23.088;2023-09-30T06:22:34;97877.19;;;17.11;32.05
39729;BME280;25402;42.004;23.088;2023-09-30T06:25:01;97877.63;;;17.08;32.00
39729;BME280;25402;42.004;23.088;2023-09-30T06:27:29;97883.50;;;17.11;32.08
39729;BME280;25402;42.004;23.088;2023-09-30T06:29:58;97884.38;;;17.12;32.31
39729;BME280;25402;42.004;23.088;2023-09-30T06:32:25;97869.44;;;17.01;32.05
39729;BME280;25402;42.004;23.088;2023-09-30T06:34:52;97864.25;;;16.93;31.97
39729;BME280;25402;42.004;23.088;2023-09-30T06:37:19;97886.91;;;17.00;31.91
39729;BME280;25402;42.004;23.088;2023-09-30T06:39:47;97887.09;;;17.05;32.33
39729;BME280;25402;42.004;23.088;2023-09-30T06:42:15;97878.97;;;16.98;32.10
39729;BME280;25402;42.004;23.088;2023-09-30T06:44:42;97883.53;;;17.05;32.16
39729;BME280;25402;42.004;23.088;2023-09-30T06:47:10;97883.31;;;17.06;32.24
39729;BME280;25402;42.004;23.088;2023-09-30T06:49:37;97881.84;;;17.03;31.91
39729;BME280;25402;42.004;23.088;2023-09-30T06:52:04;97877.84;;;17.06;32.36
39729;BME280;25402;42.004;23.088;2023-09-30T06:54:32;97872.38;;;17.06;32.30
39729;BME280;25402;42.004;23.088;2023-09-30T06:56:59;97858.16;;;16.97;32.20
39729;BME280;25402;42.004;23.088;2023-09-30T06:59:26;97864.41;;;17.05;32.33
39729;BME280;25402;42.004;23.088;2023-09-30T07:01:53;97873.59;;;17.17;31.89
39729;BME280;25402;42.004;23.088;2023-09-30T07:04:22;97874.22;;;17.19;31.79
39729;BME280;25402;42.004;23.088;2023-09-30T07:06:49;97875.03;;;17.26;31.66
39729;BME280;25402;42.004;23.088;2023-09-30T07:09:16;97879.69;;;17.19;31.14
39729;BME280;25402;42.004;23.088;2023-09-30T07:11:45;97876.72;;;17.20;31.34
39729;BME280;25402;42.004;23.088;2023-09-30T07:14:12;97873.56;;;17.23;31.83
39729;BME280;25402;42.004;23.088;2023-09-30T07:16:39;97869.88;;;17.36;31.41
39729;BME280;25402;42.004;23.088;2023-09-30T07:19:06;97865.66;;;17.40;31.29
39729;BME280;25402;42.004;23.088;2023-09-30T07:21:35;97870.28;;;17.40;31.58
39729;BME280;25402;42.004;23.088;2023-09-30T07:24:04;97871.34;;;17.39;31.61
39729;BME280;25402;42.004;23.088;2023-09-30T07:26:31;97873.81;;;17.47;31.33
39729;BME280;25402;42.004;23.088;2023-09-30T07:28:58;97873.53;;;17.55;31.30
39729;BME280;25402;42.004;23.088;2023-09-30T07:31:25;97878.13;;;17.61;31.25
39729;BME280;25402;42.004;23.088;2023-09-30T07:33:52;97875.31;;;17.67;30.75
39729;BME280;25402;42.004;23.088;2023-09-30T07:36:19;97870.63;;;17.75;30.82
39729;BME280;25402;42.004;23.088;2023-09-30T07:38:47;97859.41;;;17.83;30.41
39729;BME280;25402;42.004;23.088;2023-09-30T07:41:14;97870.34;;;18.08;30.21
39729;BME280;25402;42.004;23.088;2023-09-30T07:43:43;97867.13;;;18.11;29.93
39729;BME280;25402;42.004;23.088;2023-09-30T07:46:10;97876.34;;;18.16;29.99
39729;BME280;25402;42.004;23.088;2023-09-30T07:48:37;97870.50;;;18.31;29.83
39729;BME280;25402;42.004;23.088;2023-09-30T07:51:05;97866.78;;;18.44;29.84
39729;BME280;25402;42.004;23.088;2023-09-30T07:53:35;97867.94;;;18.54;29.66
39729;BME280;25402;42.004;23.088;2023-09-30T07:56:03;97866.72;;;18.68;29.33
39729;BME280;25402;42.004;23.088;2023-09-30T07:58:31;97872.00;;;18.82;28.83
39729;BME280;25402;42.004;23.088;2023-09-30T08:07:38;97854.81;;;19.34;27.87
39729;BME280;25402;42.004;23.088;2023-09-30T08:10:06;97864.50;;;19.49;27.81
39729;BME280;25402;42.004;23.088;2023-09-30T08:12:39;97847.13;;;19.66;27.74
39729;BME280;25402;42.004;23.088;2023-09-30T08:15:07;97825.75;;;19.57;27.41
39729;BME280;25402;42.004;23.088;2023-09-30T08:17:34;97848.81;;;19.91;27.35
39729;BME280;25402;42.004;23.088;2023-09-30T08:20:01;97830.06;;;19.99;27.04
39729;BME280;25402;42.004;23.088;2023-09-30T08:22:29;97843.66;;;20.18;26.95
39729;BME280;25402;42.004;23.088;2023-09-30T08:24:56;97846.66;;;20.28;26.54
39729;BME280;25402;42.004;23.088;2023-09-30T08:27:24;97836.00;;;20.31;26.53
39729;BME280;25402;42.004;23.088;2023-09-30T08:29:53;97841.75;;;20.41;26.68
39729;BME280;25402;42.004;23.088;2023-09-30T08:32:20;97836.69;;;20.62;26.62
39729;BME280;25402;42.004;23.088;2023-09-30T08:34:47;97839.47;;;20.78;26.27
39729;BME280;25402;42.004;23.088;2023-09-30T08:37:15;97826.41;;;20.86;26.04
39729;BME280;25402;42.004;23.088;2023-09-30T08:39:42;97828.06;;;20.98;25.65
39729;BME280;25402;42.004;23.088;2023-09-30T08:42:12;97823.66;;;21.14;25.75
39729;BME280;25402;42.004;23.088;2023-09-30T08:44:39;97829.94;;;21.26;25.14
39729;BME280;25402;42.004;23.088;2023-09-30T08:47:08;97824.03;;;21.34;25.26
39729;BME280;25402;42.004;23.088;2023-09-30T08:49:37;97817.16;;;21.48;24.89
39729;BME280;25402;42.004;23.088;2023-09-30T08:52:05;97813.56;;;21.65;25.19
39729;BME280;25402;42.004;23.088;2023-09-30T08:54:33;97803.13;;;21.67;25.10
39729;BME280;25402;42.004;23.088;2023-09-30T08:57:00;97809.81;;;21.71;24.81
39729;BME280;25402;42.004;23.088;2023-09-30T08:59:30;97808.38;;;21.85;25.20
39729;BME280;25402;42.004;23.088;2023-09-30T09:01:58;97804.41;;;21.98;24.48
39729;BME280;25402;42.004;23.088;2023-09-30T09:04:27;97798.50;;;22.06;24.32
39729;BME280;25402;42.004;23.088;2023-09-30T09:06:54;97784.78;;;22.11;24.45
39729;BME280;25402;42.004;23.088;2023-09-30T09:09:21;97785.72;;;22.16;24.45
39729;BME280;25402;42.004;23.088;2023-09-30T09:11:49;97787.88;;;22.36;24.05
39729;BME280;25402;42.004;23.088;2023-09-30T09:14:17;97783.91;;;22.49;24.02
39729;BME280;25402;42.004;23.088;2023-09-30T09:16:54;97784.13;;;22.64;23.68
39729;BME280;25402;42.004;23.088;2023-09-30T09:19:22;97779.13;;;22.61;23.54
39729;BME280;25402;42.004;23.088;2023-09-30T09:21:58;97782.56;;;22.73;23.98
39729;BME280;25402;42.004;23.088;2023-09-30T09:24:29;97778.91;;;22.95;23.73
39729;BME280;25402;42.004;23.088;2023-09-30T09:27:07;97766.69;;;23.12;23.57
39729;BME280;25402;42.004;23.088;2023-09-30T09:29:35;97759.28;;;23.18;22.92
39729;BME280;25402;42.004;23.088;2023-09-30T09:32:10;97756.78;;;23.16;23.16
39729;BME280;25402;42.004;23.088;2023-09-30T09:34:37;97748.19;;;22.86;23.09
39729;BME280;25402;42.004;23.088;2023-09-30T09:37:16;97752.06;;;22.85;23.37
39729;BME280;25402;42.004;23.088;2023-09-30T09:39:51;97747.44;;;22.91;23.10
39729;BME280;25402;42.004;23.088;2023-09-30T09:42:26;97741.41;;;22.99;23.64
39729;BME280;25402;42.004;23.088;2023-09-30T09:44:55;97737.56;;;23.00;23.72
39729;BME280;25402;42.004;23.088;2023-09-30T09:47:24;97729.00;;;23.23;22.80
39729;BME280;25402;42.004;23.088;2023-09-30T09:49:51;97715.09;;;23.50;22.66
39729;BME280;25402;42.004;23.088;2023-09-30T09:52:22;97721.94;;;23.79;22.60
39729;BME280;25402;42.004;23.088;2023-09-30T09:54:50;97728.72;;;24.09;22.17
39729;BME280;25402;42.004;23.088;2023-09-30T09:57:18;97724.66;;;24.21;21.92
39729;BME280;25402;42.004;23.088;2023-09-30T09:59:46;97718.06;;;24.33;21.95
39729;BME280;25402;42.004;23.088;2023-09-30T10:02:15;97714.28;;;24.59;21.81
39729;BME280;25402;42.004;23.088;2023-09-30T10:04:44;97691.91;;;24.71;21.39
39729;BME280;25402;42.004;23.088;2023-09-30T10:07:16;97700.00;;;25.03;20.61
39729;BME280;25402;42.004;23.088;2023-09-30T10:09:50;97703.31;;;25.10;20.24
39729;BME280;25402;42.004;23.088;2023-09-30T10:12:19;97703.06;;;25.26;20.07
39729;BME280;25402;42.004;23.088;2023-09-30T10:14:46;97695.25;;;25.54;19.51
39729;BME280;25402;42.004;23.088;2023-09-30T10:17:14;97686.13;;;25.58;19.17
39729;BME280;25402;42.004;23.088;2023-09-30T10:20:06;97693.81;;;25.92;19.30
39729;BME280;25402;42.004;23.088;2023-09-30T10:22:33;97685.19;;;25.98;19.43
39729;BME280;25402;42.004;23.088;2023-09-30T10:25:34;97682.19;;;25.90;19.41
39729;BME280;25402;42.004;23.088;2023-09-30T10:34:47;97663.28;;;26.56;18.84
39729;BME280;25402;42.004;23.088;2023-09-30T10:37:20;97647.41;;;26.67;18.79
39729;BME280;25402;42.004;23.088;2023-09-30T10:40:07;97657.47;;;26.97;18.46
39729;BME280;25402;42.004;23.088;2023-09-30T10:42:52;97653.16;;;27.15;17.75
39729;BME280;25402;42.004;23.088;2023-09-30T10:45:43;97632.44;;;27.36;17.59
39729;BME280;25402;42.004;23.088;2023-09-30T10:48:32;97636.69;;;27.52;17.14
39729;BME280;25402;42.004;23.088;2023-09-30T10:51:01;97631.78;;;27.44;18.02
39729;BME280;25402;42.004;23.088;2023-09-30T10:53:41;97620.63;;;27.49;17.64
39729;BME280;25402;42.004;23.088;2023-09-30T10:56:10;97617.28;;;27.47;17.19
39729;BME280;25402;42.004;23.088;2023-09-30T10:58:41;97620.50;;;27.35;16.69
39729;BME280;25402;42.004;23.088;2023-09-30T11:07:48;97605.69;;;27.40;16.40
39729;BME280;25402;42.004;23.088;2023-09-30T11:10:17;97590.97;;;27.40;16.41
39729;BME280;25402;42.004;23.088;2023-09-30T11:12:56;97607.81;;;27.72;16.19
39729;BME280;25402;42.004;23.088;2023-09-30T11:15:24;97601.13;;;27.54;16.31
39729;BME280;25402;42.004;23.088;2023-09-30T11:17:53;97590.00;;;27.78;16.30
39729;BME280;25402;42.004;23.088;2023-09-30T11:20:20;97586.81;;;28.09;16.42
39729;BME280;25402;42.004;23.088;2023-09-30T11:22:47;97587.34;;;28.11;16.58
39729;BME280;25402;42.004;23.088;2023-09-30T11:25:16;97580.72;;;28.07;16.16
39729;BME280;25402;42.004;23.088;2023-09-30T11:27:45;97580.81;;;28.20;16.16
39729;BME280;25402;42.004;23.088;2023-09-30T11:30:14;97571.00;;;28.28;15.33
39729;BME280;25402;42.004;23.088;2023-09-30T11:32:41;97561.94;;;27.98;15.23
39729;BME280;25402;42.004;23.088;2023-09-30T11:35:09;97540.72;;;28.02;14.70
39729;BME280;25402;42.004;23.088;2023-09-30T11:37:41;97553.63;;;28.17;14.48
39729;BME280;25402;42.004;23.088;2023-09-30T11:40:12;97544.91;;;28.24;14.86
39729;BME280;25402;42.004;23.088;2023-09-30T11:42:40;97544.88;;;28.05;14.89
39729;BME280;25402;42.004;23.088;2023-09-30T11:45:23;97548.13;;;27.69;15.58
39729;BME280;25402;42.004;23.088;2023-09-30T11:47:50;97535.72;;;27.86;15.20
39729;BME280;25402;42.004;23.088;2023-09-30T11:50:17;97535.25;;;27.79;15.28
39729;BME280;25402;42.004;23.088;2023-09-30T11:52:44;97528.81;;;28.02;15.12
39729;BME280;25402;42.004;23.088;2023-09-30T11:55:12;97524.59;;;27.86;14.85
39729;BME280;25402;42.004;23.088;2023-09-30T11:57:42;97525.28;;;27.01;15.03
39729;BME280;25402;42.004;23.088;2023-09-30T12:00:09;97518.69;;;27.21;15.41
39729;BME280;25402;42.004;23.088;2023-09-30T12:02:41;97514.59;;;27.61;14.79
39729;BME280;25402;42.004;23.088;2023-09-30T12:05:08;97512.47;;;27.77;13.54
39729;BME280;25402;42.004;23.088;2023-09-30T12:07:37;97509.84;;;28.04;13.38
39729;BME280;25402;42.004;23.088;2023-09-30T12:10:07;97500.78;;;28.17;13.64
39729;BME280;25402;42.004;23.088;2023-09-30T12:12:35;97483.50;;;28.01;13.60
39729;BME280;25402;42.004;23.088;2023-09-30T12:15:06;97482.03;;;27.66;13.77
39729;BME280;25402;42.004;23.088;2023-09-30T12:17:34;97479.66;;;27.79;13.82
39729;BME280;25402;42.004;23.088;2023-09-30T12:20:05;97486.16;;;27.69;13.63
39729;BME280;25402;42.004;23.088;2023-09-30T12:22:32;97489.50;;;27.47;14.24
39729;BME280;25402;42.004;23.088;2023-09-30T12:24:59;97464.94;;;27.35;14.00
39729;BME280;25402;42.004;23.088;2023-09-30T12:27:27;97470.25;;;27.32;14.40
39729;BME280;25402;42.004;23.088;2023-09-30T12:29:53;97470.31;;;26.74;14.74
39729;BME280;25402;42.004;23.088;2023-09-30T12:32:21;97463.38;;;26.77;14.46
39729;BME280;25402;42.004;23.088;2023-09-30T12:34:48;97450.53;;;26.86;14.96
39729;BME280;25402;42.004;23.088;2023-09-30T12:37:18;97462.72;;;26.56;15.31
39729;BME280;25402;42.004;23.088;2023-09-30T12:39:45;97467.06;;;26.67;15.63
39729;BME280;25402;42.004;23.088;2023-09-30T12:42:13;97454.25;;;26.71;15.29
39729;BME280;25402;42.004;23.088;2023-09-30T12:44:41;97449.81;;;26.99;15.02
39729;BME280;25402;42.004;23.088;2023-09-30T12:47:08;97454.53;;;26.98;14.76
39729;BME280;25402;42.004;23.088;2023-09-30T12:49:37;97448.16;;;27.22;15.03
39729;BME280;25402;42.004;23.088;2023-09-30T12:52:04;97459.22;;;26.74;14.82
39729;BME280;25402;42.004;23.088;2023-09-30T12:54:32;97442.81;;;26.49;14.92
39729;BME280;25402;42.004;23.088;2023-09-30T12:56:59;97434.41;;;26.88;15.03
39729;BME280;25402;42.004;23.088;2023-09-30T12:59:26;97446.06;;;27.09;15.23
39729;BME280;25402;42.004;23.088;2023-09-30T13:01:53;97440.25;;;27.34;14.45
39729;BME280;25402;42.004;23.088;2023-09-30T13:04:22;97446.13;;;27.51;14.38
39729;BME280;25402;42.004;23.088;2023-09-30T13:06:49;97438.28;;;27.34;14.41
39729;BME280;25402;42.004;23.088;2023-09-30T13:09:16;97427.50;;;27.52;14.40
39729;BME280;25402;42.004;23.088;2023-09-30T13:11:46;97438.69;;;27.65;14.10
39729;BME280;25402;42.004;23.088;2023-09-30T13:14:14;97426.25;;;27.82;14.40
39729;BME280;25402;42.004;23.088;2023-09-30T13:16:41;97411.91;;;27.75;14.65
39729;BME280;25402;42.004;23.088;2023-09-30T13:19:08;97409.41;;;27.54;14.46
39729;BME280;25402;42.004;23.088;2023-09-30T13:21:35;97396.78;;;27.00;14.92